createdAt,value
2017-03-21T00:00:11.270Z,0
2017-03-21T00:01:20.837Z,0
2017-03-21T00:02:30.106Z,0
2017-03-21T00:03:39.076Z,0
2017-03-21T00:04:48.396Z,0
2017-03-21T00:05:57.058Z,0
2017-03-21T00:07:06.031Z,0
2017-03-21T00:08:15.595Z,0
2017-03-21T00:09:25.761Z,0
2017-03-21T00:10:34.725Z,0
2017-03-21T00:11:43.681Z,0
2017-03-21T00:12:52.649Z,0
2017-03-21T00:14:01.914Z,0
2017-03-21T00:15:10.878Z,0
2017-03-21T00:16:19.840Z,0
2017-03-21T00:17:28.943Z,0
2017-03-21T00:18:38.649Z,0
2017-03-21T00:19:48.231Z,0
2017-03-21T00:20:56.905Z,0
2017-03-21T00:22:06.190Z,0
2017-03-21T00:23:15.456Z,0
2017-03-21T00:24:24.738Z,0
2017-03-21T00:25:33.693Z,0
2017-03-21T00:26:42.860Z,0
2017-03-21T00:27:52.130Z,0
2017-03-21T00:29:01.400Z,0
2017-03-21T00:30:10.776Z,0
2017-03-21T00:31:19.427Z,0
2017-03-21T00:32:28.687Z,0
2017-03-21T00:33:37.979Z,0
2017-03-21T00:34:46.947Z,0
2017-03-21T00:35:55.618Z,0
2017-03-21T00:37:04.974Z,0
2017-03-21T00:38:13.932Z,0
2017-03-21T00:39:23.806Z,0
2017-03-21T00:40:33.092Z,0
2017-03-21T00:41:42.227Z,0
2017-03-21T00:42:51.637Z,0
2017-03-21T00:44:01.312Z,0
2017-03-21T00:45:10.605Z,0
2017-03-21T00:46:19.562Z,0
2017-03-21T00:47:28.225Z,0
2017-03-21T00:48:38.088Z,0
2017-03-21T00:49:47.653Z,0
2017-03-21T00:50:56.921Z,0
2017-03-21T00:52:06.223Z,0
2017-03-21T00:53:15.227Z,0
2017-03-21T00:54:25.109Z,0
2017-03-21T00:55:34.364Z,0
2017-03-21T00:56:43.315Z,0
2017-03-21T00:57:52.894Z,0
2017-03-21T00:59:02.183Z,0
2017-03-21T01:00:10.845Z,0
2017-03-21T01:01:20.163Z,0
2017-03-21T01:30:28.262Z,0
2017-03-21T01:31:37.232Z,0
2017-03-21T01:32:46.517Z,0
2017-03-21T01:33:56.101Z,0
2017-03-21T01:35:05.088Z,0
2017-03-21T01:36:13.759Z,0
2017-03-21T01:37:22.430Z,0
2017-03-21T01:38:31.405Z,0
2017-03-21T01:39:40.679Z,0
2017-03-21T01:40:50.256Z,0
2017-03-21T01:41:59.239Z,0
2017-03-21T01:43:08.512Z,0
2017-03-21T01:44:17.792Z,0
2017-03-21T01:45:26.766Z,0
2017-03-21T01:46:35.444Z,0
2017-03-21T01:47:44.720Z,0
2017-03-21T01:48:54.000Z,0
2017-03-21T01:50:02.671Z,0
2017-03-21T01:51:11.345Z,0
2017-03-21T01:52:20.312Z,0
2017-03-21T01:53:30.496Z,0
2017-03-21T01:54:40.080Z,0
2017-03-21T01:55:48.754Z,0
2017-03-21T01:56:57.731Z,0
2017-03-21T01:58:07.317Z,0
2017-03-21T01:59:16.894Z,0
2017-03-21T02:00:26.156Z,0
2017-03-21T02:01:34.835Z,0
2017-03-21T02:02:44.432Z,0
2017-03-21T02:03:54.027Z,0
2017-03-21T02:05:03.310Z,0
2017-03-21T02:06:12.889Z,0
2017-03-21T02:07:21.561Z,0
2017-03-21T02:08:31.484Z,0
2017-03-21T02:09:41.064Z,0
2017-03-21T02:10:49.733Z,0
2017-03-21T02:11:58.407Z,0
2017-03-21T02:13:07.377Z,0
2017-03-21T02:14:16.946Z,0
2017-03-21T02:15:25.917Z,0
2017-03-21T02:16:34.592Z,0
2017-03-21T02:17:43.876Z,0
2017-03-21T02:18:53.755Z,0
2017-03-21T02:20:03.332Z,0
2017-03-21T02:21:11.998Z,0
2017-03-21T02:22:20.668Z,0
2017-03-21T02:23:30.255Z,0
2017-03-21T02:24:39.530Z,0
2017-03-21T02:25:48.809Z,0
2017-03-21T02:26:57.485Z,0
2017-03-21T02:28:06.769Z,0
2017-03-21T02:29:16.097Z,0
2017-03-21T02:30:24.777Z,0
2017-03-21T02:31:33.770Z,0
2017-03-21T02:32:42.441Z,0
2017-03-21T02:33:51.417Z,0
2017-03-21T02:35:01.286Z,0
2017-03-21T02:36:09.953Z,0
2017-03-21T02:37:18.620Z,0
2017-03-21T02:38:27.601Z,0
2017-03-21T02:39:36.882Z,0
2017-03-21T02:40:45.553Z,0
2017-03-21T02:41:54.829Z,0
2017-03-21T02:43:03.816Z,0
2017-03-21T02:44:13.405Z,0
2017-03-21T02:45:22.683Z,0
2017-03-21T02:46:31.692Z,0
2017-03-21T02:47:40.661Z,0
2017-03-21T02:48:49.939Z,0
2017-03-21T02:49:59.523Z,0
2017-03-21T02:51:09.111Z,0
2017-03-21T02:52:17.790Z,0
2017-03-21T02:53:27.075Z,0
2017-03-21T02:54:36.355Z,0
2017-03-21T02:55:45.026Z,0
2017-03-21T02:56:53.704Z,0
2017-03-21T02:58:03.294Z,0
2017-03-21T02:59:12.578Z,0
2017-03-21T03:00:21.855Z,0
2017-03-21T03:01:30.530Z,0
2017-03-21T03:02:39.513Z,0
2017-03-21T03:03:48.496Z,0
2017-03-21T03:04:58.095Z,0
2017-03-21T03:06:07.081Z,0
2017-03-21T03:07:15.751Z,0
2017-03-21T03:08:25.338Z,0
2017-03-21T03:09:34.915Z,0
2017-03-21T03:10:43.891Z,0
2017-03-21T03:11:52.861Z,0
2017-03-21T03:13:01.834Z,0
2017-03-21T03:14:11.428Z,0
2017-03-21T03:15:20.702Z,0
2017-03-21T03:16:29.384Z,0
2017-03-21T03:17:38.675Z,0
2017-03-21T03:18:48.559Z,0
2017-03-21T03:19:57.833Z,0
2017-03-21T03:21:07.098Z,0
2017-03-21T03:22:16.370Z,0
2017-03-21T03:23:25.341Z,0
2017-03-21T03:24:34.324Z,0
2017-03-21T03:25:43.000Z,0
2017-03-21T03:26:51.669Z,0
2017-03-21T03:28:00.944Z,0
2017-03-21T03:29:10.520Z,0
2017-03-21T03:30:19.496Z,0
2017-03-21T03:31:28.477Z,0
2017-03-21T03:32:37.750Z,0
2017-03-21T03:33:47.041Z,0
2017-03-21T03:34:56.325Z,0
2017-03-21T03:36:05.594Z,0
2017-03-21T03:37:14.861Z,0
2017-03-21T03:38:23.833Z,0
2017-03-21T03:39:33.110Z,0
2017-03-21T03:40:42.384Z,0
2017-03-21T03:41:51.355Z,0
2017-03-21T03:43:00.628Z,0
2017-03-21T03:44:09.609Z,0
2017-03-21T03:45:18.889Z,0
2017-03-21T03:46:27.879Z,0
2017-03-21T03:47:36.859Z,0
2017-03-21T03:48:46.441Z,0
2017-03-21T03:49:56.028Z,0
2017-03-21T03:51:05.611Z,0
2017-03-21T03:52:14.602Z,0
2017-03-21T03:53:24.182Z,0
2017-03-21T03:54:33.461Z,0
2017-03-21T03:55:42.461Z,0
2017-03-21T03:56:51.130Z,0
2017-03-21T03:58:00.412Z,0
2017-03-21T03:59:10.302Z,0
2017-03-21T04:00:19.288Z,0
2017-03-21T04:01:28.274Z,0
2017-03-21T04:02:36.951Z,0
2017-03-21T04:03:46.231Z,0
2017-03-21T04:04:55.806Z,0
2017-03-21T04:06:05.085Z,0
2017-03-21T04:07:14.051Z,0
2017-03-21T04:08:23.626Z,0
2017-03-21T04:09:32.600Z,0
2017-03-21T04:10:41.269Z,0
2017-03-21T04:11:50.238Z,0
2017-03-21T04:12:59.521Z,0
2017-03-21T04:14:08.491Z,0
2017-03-21T04:15:17.768Z,0
2017-03-21T04:16:26.433Z,0
2017-03-21T04:17:35.411Z,0
2017-03-21T04:18:44.987Z,0
2017-03-21T04:19:54.859Z,0
2017-03-21T04:21:03.839Z,0
2017-03-21T04:22:12.817Z,0
2017-03-21T04:23:22.397Z,0
2017-03-21T04:24:32.579Z,0
2017-03-21T04:25:41.863Z,0
2017-03-21T04:26:50.827Z,0
2017-03-21T04:28:00.107Z,0
2017-03-21T04:29:08.784Z,0
2017-03-21T04:30:17.762Z,0
2017-03-21T04:31:26.428Z,0
2017-03-21T04:32:35.396Z,0
2017-03-21T04:33:44.682Z,0
2017-03-21T04:34:54.561Z,0
2017-03-21T04:36:03.834Z,0
2017-03-21T04:37:12.809Z,0
2017-03-21T04:38:22.086Z,0
2017-03-21T04:39:31.373Z,0
2017-03-21T04:40:40.656Z,0
2017-03-21T04:41:49.629Z,0
2017-03-21T04:42:58.905Z,0
2017-03-21T04:44:08.485Z,0
2017-03-21T04:45:17.477Z,0
2017-03-21T04:46:26.754Z,0
2017-03-21T04:47:35.733Z,0
2017-03-21T04:48:45.313Z,0
2017-03-21T04:49:54.285Z,0
2017-03-21T04:51:03.580Z,0
2017-03-21T04:52:12.550Z,0
2017-03-21T04:53:21.831Z,0
2017-03-21T04:54:31.457Z,0
2017-03-21T04:55:40.126Z,0
2017-03-21T04:56:49.403Z,0
2017-03-21T04:57:58.373Z,0
2017-03-21T04:59:08.544Z,0
2017-03-21T05:00:18.427Z,0
2017-03-21T05:01:27.101Z,0
2017-03-21T05:02:36.381Z,0
2017-03-21T05:03:45.954Z,0
2017-03-21T05:04:55.838Z,0
2017-03-21T05:06:04.824Z,4
2017-03-21T05:07:13.799Z,4
2017-03-21T05:08:22.774Z,4
2017-03-21T05:09:32.361Z,8
2017-03-21T05:10:41.967Z,8
2017-03-21T05:11:50.941Z,8
2017-03-21T05:13:00.228Z,12
2017-03-21T05:14:09.203Z,12
2017-03-21T05:15:18.163Z,16
2017-03-21T05:16:27.139Z,16
2017-03-21T05:17:36.411Z,24
2017-03-21T05:18:46.286Z,28
2017-03-21T05:19:55.867Z,32
2017-03-21T05:21:05.447Z,44
2017-03-21T05:22:14.419Z,52
2017-03-21T05:23:23.699Z,60
2017-03-21T05:24:32.985Z,64
2017-03-21T05:25:41.960Z,76
2017-03-21T05:26:50.627Z,92
2017-03-21T05:27:59.605Z,100
2017-03-21T05:29:08.878Z,116
2017-03-21T05:30:18.150Z,140
2017-03-21T05:31:26.822Z,156
2017-03-21T05:32:36.100Z,172
2017-03-21T05:33:45.982Z,216
2017-03-21T05:34:55.558Z,256
2017-03-21T05:36:04.526Z,308
2017-03-21T05:37:13.806Z,376
2017-03-21T05:38:23.090Z,468
2017-03-21T05:39:32.679Z,540
2017-03-21T05:40:42.554Z,588
2017-03-21T05:41:51.214Z,612
2017-03-21T05:43:00.745Z,656
2017-03-21T05:44:10.331Z,724
2017-03-21T05:45:19.599Z,804
2017-03-21T05:46:28.569Z,872
2017-03-21T05:47:37.847Z,932
2017-03-21T05:48:47.731Z,996
2017-03-21T05:49:57.819Z,1064
2017-03-21T05:51:06.800Z,1128
2017-03-21T05:52:15.776Z,1192
2017-03-21T05:53:25.362Z,1268
2017-03-21T05:54:34.643Z,1348
2017-03-21T05:55:44.223Z,1444
2017-03-21T05:56:53.493Z,1576
2017-03-21T05:58:02.766Z,1700
2017-03-21T05:59:12.045Z,1800
2017-03-21T06:00:21.623Z,1936
2017-03-21T06:01:30.593Z,2064
2017-03-21T06:02:39.574Z,2236
2017-03-21T06:03:49.454Z,2408
2017-03-21T06:04:58.723Z,2528
2017-03-21T06:06:07.381Z,2656
2017-03-21T06:07:16.356Z,2788
2017-03-21T06:08:25.631Z,2908
2017-03-21T06:09:34.615Z,2960
2017-03-21T06:10:43.594Z,2984
2017-03-21T06:11:52.274Z,3016
2017-03-21T06:13:01.254Z,3140
2017-03-21T06:14:10.533Z,3292
2017-03-21T06:15:19.510Z,3424
2017-03-21T06:16:28.183Z,3492
2017-03-21T06:17:37.163Z,3544
2017-03-21T06:18:46.736Z,3624
2017-03-21T06:19:56.618Z,3732
2017-03-21T06:21:05.286Z,3872
2017-03-21T06:22:13.955Z,4000
2017-03-21T06:23:23.230Z,4072
2017-03-21T06:24:32.815Z,4108
2017-03-21T06:25:42.386Z,4184
2017-03-21T06:26:51.052Z,4284
2017-03-21T06:27:59.718Z,4340
2017-03-21T06:29:09.005Z,4360
2017-03-21T06:30:17.680Z,4300
2017-03-21T06:31:26.957Z,4180
2017-03-21T06:32:35.932Z,4132
2017-03-21T06:33:45.509Z,4208
2017-03-21T06:34:54.828Z,4384
2017-03-21T06:36:04.145Z,4744
2017-03-21T06:37:12.802Z,5080
2017-03-21T06:38:21.788Z,5444
2017-03-21T06:39:31.362Z,5780
2017-03-21T06:40:40.958Z,6120
2017-03-21T06:41:49.933Z,6508
2017-03-21T06:42:59.218Z,6932
2017-03-21T06:44:08.791Z,7380
2017-03-21T06:45:18.068Z,7708
2017-03-21T06:46:26.749Z,8036
2017-03-21T06:47:36.039Z,8348
2017-03-21T06:48:45.935Z,8716
2017-03-21T06:49:55.517Z,8952
2017-03-21T06:51:04.515Z,9024
2017-03-21T06:52:13.489Z,8868
2017-03-21T06:53:22.761Z,8704
2017-03-21T06:54:32.038Z,8636
2017-03-21T06:55:40.708Z,8480
2017-03-21T06:56:49.681Z,8480
2017-03-21T06:57:58.666Z,8440
2017-03-21T06:59:07.350Z,8404
2017-03-21T07:00:16.916Z,8404
2017-03-21T07:01:26.500Z,8384
2017-03-21T07:02:35.176Z,8372
2017-03-21T07:03:45.052Z,8380
2017-03-21T07:04:54.934Z,8300
2017-03-21T07:06:03.930Z,8168
2017-03-21T07:07:13.200Z,7960
2017-03-21T07:08:22.790Z,7764
2017-03-21T07:09:31.769Z,7676
2017-03-21T07:10:41.039Z,7688
2017-03-21T07:11:49.713Z,7760
2017-03-21T07:12:58.984Z,7756
2017-03-21T07:14:08.259Z,7604
2017-03-21T07:15:17.247Z,7432
2017-03-21T07:16:26.214Z,7216
2017-03-21T07:17:35.192Z,6980
2017-03-21T07:18:44.773Z,6664
2017-03-21T07:19:54.359Z,6296
2017-03-21T07:21:03.336Z,6128
2017-03-21T07:22:12.311Z,6116
2017-03-21T07:23:21.905Z,6320
2017-03-21T07:24:31.483Z,6732
2017-03-21T07:25:40.768Z,7144
2017-03-21T07:26:49.453Z,8132
2017-03-21T07:27:58.128Z,9596
2017-03-21T07:29:07.996Z,8780
2017-03-21T07:30:16.969Z,7596
2017-03-21T07:31:25.958Z,7136
2017-03-21T07:32:35.237Z,7624
2017-03-21T07:33:44.825Z,8056
2017-03-21T07:34:53.811Z,9292
2017-03-21T07:36:03.082Z,10464
2017-03-21T07:37:12.651Z,10240
2017-03-21T07:38:21.625Z,10168
2017-03-21T07:39:31.219Z,9660
2017-03-21T07:40:40.192Z,9892
2017-03-21T07:41:49.169Z,9984
2017-03-21T07:42:58.161Z,11684
2017-03-21T07:44:07.438Z,15412
2017-03-21T07:45:17.019Z,15188
2017-03-21T07:46:26.323Z,14672
2017-03-21T07:47:34.995Z,16376
2017-03-21T07:48:44.583Z,15716
2017-03-21T07:49:53.866Z,12216
2017-03-21T07:51:02.841Z,11260
2017-03-21T07:52:12.126Z,11964
2017-03-21T07:53:21.105Z,11664
2017-03-21T07:54:30.689Z,9444
2017-03-21T07:55:39.678Z,7720
2017-03-21T07:56:48.350Z,5236
2017-03-21T07:57:57.332Z,3116
2017-03-21T07:59:06.617Z,2248
2017-03-21T08:00:15.894Z,1992
2017-03-21T08:01:24.567Z,2652
2017-03-21T08:02:33.247Z,3376
2017-03-21T08:03:42.529Z,3464
2017-03-21T08:04:51.204Z,3664
2017-03-21T08:06:00.775Z,3760
2017-03-21T08:07:09.761Z,4340
2017-03-21T08:08:18.443Z,4632
2017-03-21T08:09:28.035Z,4060
2017-03-21T08:10:37.011Z,4928
2017-03-21T08:11:45.982Z,6752
2017-03-21T08:12:55.255Z,8432
2017-03-21T08:14:03.916Z,12064
2017-03-21T08:15:12.889Z,13132
2017-03-21T08:16:22.159Z,12572
2017-03-21T08:17:31.135Z,12076
2017-03-21T08:18:41.020Z,12212
2017-03-21T08:19:49.999Z,12464
2017-03-21T08:20:58.721Z,12828
2017-03-21T08:22:07.385Z,13400
2017-03-21T08:23:16.365Z,14208
2017-03-21T08:24:25.946Z,14660
2017-03-21T08:25:34.926Z,14532
2017-03-21T08:26:43.903Z,14644
2017-03-21T08:27:53.499Z,15208
2017-03-21T08:29:02.783Z,16144
2017-03-21T08:30:11.763Z,15992
2017-03-21T08:31:21.049Z,15144
2017-03-21T08:32:30.030Z,14004
2017-03-21T08:33:39.011Z,12432
2017-03-21T08:34:48.285Z,11300
2017-03-21T08:35:57.853Z,10956
2017-03-21T08:37:07.134Z,11744
2017-03-21T08:38:15.804Z,11432
2017-03-21T08:39:24.480Z,10344
2017-03-21T08:40:33.463Z,9940
2017-03-21T08:41:42.139Z,9112
2017-03-21T08:42:50.806Z,8872
2017-03-21T08:43:59.480Z,8528
2017-03-21T08:45:08.157Z,8352
2017-03-21T08:46:16.821Z,7840
2017-03-21T08:47:26.096Z,6308
2017-03-21T08:48:35.080Z,5272
2017-03-21T08:49:44.605Z,4688
2017-03-21T08:50:53.587Z,4016
2017-03-21T08:52:02.564Z,3472
2017-03-21T08:53:11.541Z,2756
2017-03-21T08:54:20.539Z,2448
2017-03-21T08:55:29.814Z,2480
2017-03-21T08:56:38.480Z,2664
2017-03-21T08:57:47.451Z,2076
2017-03-21T08:58:56.113Z,1756
2017-03-21T09:00:05.095Z,1928
2017-03-21T09:01:14.015Z,2416
2017-03-21T09:02:23.002Z,2564
2017-03-21T09:03:32.285Z,3272
2017-03-21T09:04:40.955Z,4580
2017-03-21T09:05:49.620Z,6016
2017-03-21T09:06:58.591Z,7388
2017-03-21T09:08:07.577Z,8668
2017-03-21T09:09:16.554Z,9288
2017-03-21T09:10:25.255Z,8264
2017-03-21T09:11:33.937Z,6552
2017-03-21T09:12:42.903Z,5672
2017-03-21T09:13:51.874Z,6136
2017-03-21T09:15:00.543Z,7172
2017-03-21T09:16:09.212Z,9360
2017-03-21T09:17:17.881Z,12112
2017-03-21T09:18:26.554Z,15164
2017-03-21T09:19:35.221Z,17364
2017-03-21T09:20:44.193Z,18080
2017-03-21T09:21:52.870Z,17696
2017-03-21T09:23:01.538Z,18368
2017-03-21T09:24:10.506Z,20192
2017-03-21T09:25:19.772Z,21056
2017-03-21T09:26:28.444Z,20800
2017-03-21T09:27:37.147Z,20928
2017-03-21T09:28:46.132Z,22304
2017-03-21T09:29:54.808Z,22816
2017-03-21T09:31:03.773Z,22784
2017-03-21T09:32:12.437Z,21600
2017-03-21T09:33:21.106Z,20480
2017-03-21T09:34:30.080Z,18944
2017-03-21T09:35:39.358Z,16880
2017-03-21T09:36:48.036Z,21216
2017-03-21T09:37:56.722Z,23392
2017-03-21T09:39:05.695Z,22496
2017-03-21T09:40:14.365Z,22080
2017-03-21T09:41:23.337Z,22528
2017-03-21T09:42:32.309Z,21024
2017-03-21T09:43:40.974Z,20928
2017-03-21T09:44:49.649Z,22368
2017-03-21T09:45:58.308Z,20640
2017-03-21T09:47:06.984Z,19712
2017-03-21T09:48:15.961Z,20128
2017-03-21T09:49:24.939Z,21600
2017-03-21T09:50:33.614Z,23264
2017-03-21T09:51:42.289Z,26592
2017-03-21T09:52:51.257Z,33504
2017-03-21T09:53:59.933Z,27968
2017-03-21T09:55:08.911Z,20608
2017-03-21T09:56:17.883Z,12804
2017-03-21T09:57:27.156Z,7252
2017-03-21T09:58:36.130Z,6060
2017-03-21T09:59:45.702Z,7412
2017-03-21T10:00:54.672Z,10152
2017-03-21T10:02:03.342Z,12232
2017-03-21T10:03:12.324Z,13252
2017-03-21T10:04:21.025Z,14584
2017-03-21T10:05:29.701Z,16084
2017-03-21T10:06:38.676Z,15040
2017-03-21T10:07:47.347Z,14548
2017-03-21T10:08:56.313Z,14308
2017-03-21T10:10:04.977Z,18144
2017-03-21T10:11:13.643Z,22688
2017-03-21T10:12:22.612Z,31072
2017-03-21T10:13:31.275Z,19456
2017-03-21T10:14:40.241Z,19520
2017-03-21T10:15:48.911Z,20128
2017-03-21T10:16:57.577Z,20448
2017-03-21T10:18:06.252Z,20096
2017-03-21T10:19:15.224Z,19456
2017-03-21T10:20:23.892Z,18064
2017-03-21T10:21:32.867Z,17056
2017-03-21T10:22:42.439Z,17036
2017-03-21T10:23:51.415Z,17416
2017-03-21T10:25:00.095Z,17600
2017-03-21T10:26:08.765Z,16716
2017-03-21T10:27:17.437Z,15980
2017-03-21T10:28:26.105Z,14360
2017-03-21T10:29:35.079Z,40416
2017-03-21T10:30:43.748Z,38720
2017-03-21T10:31:52.721Z,35968
2017-03-21T10:33:01.725Z,36800
2017-03-21T10:34:10.422Z,37824
2017-03-21T10:35:19.091Z,44000
2017-03-21T10:36:28.059Z,35360
2017-03-21T10:37:36.728Z,46592
2017-03-21T10:38:45.701Z,47328
2017-03-21T10:39:54.987Z,44576
2017-03-21T10:41:03.668Z,44128
2017-03-21T10:42:12.346Z,39520
2017-03-21T10:43:21.026Z,27904
2017-03-21T10:44:30.003Z,49728
2017-03-21T10:45:38.682Z,24160
2017-03-21T10:46:47.654Z,19168
2017-03-21T10:47:56.339Z,33984
2017-03-21T10:49:05.314Z,21280
2017-03-21T10:50:14.285Z,42880
2017-03-21T10:51:22.960Z,35232
2017-03-21T10:52:32.236Z,25760
2017-03-21T10:53:41.248Z,42944
2017-03-21T10:54:50.237Z,40864
2017-03-21T10:55:59.226Z,24352
2017-03-21T10:57:07.910Z,25344
2017-03-21T10:58:17.184Z,19872
2017-03-21T10:59:26.165Z,19680
2017-03-21T11:00:35.145Z,20384
2017-03-21T11:01:44.432Z,15584
2017-03-21T11:02:53.712Z,13792
2017-03-21T11:04:02.385Z,14700
2017-03-21T11:05:11.661Z,14868
2017-03-21T11:06:20.351Z,15788
2017-03-21T11:07:29.032Z,18784
2017-03-21T11:08:38.312Z,27616
2017-03-21T11:09:47.296Z,30912
2017-03-21T11:10:56.282Z,30368
2017-03-21T11:12:04.989Z,30208
2017-03-21T11:13:13.669Z,29152
2017-03-21T11:14:22.344Z,22880
2017-03-21T11:15:31.319Z,20288
2017-03-21T11:16:40.298Z,22464
2017-03-21T11:17:48.965Z,26912
2017-03-21T11:18:57.989Z,26080
2017-03-21T11:20:06.667Z,22592
2017-03-21T11:21:15.649Z,22240
2017-03-21T11:22:24.624Z,22528
2017-03-21T11:23:33.599Z,24704
2017-03-21T11:24:42.279Z,26496
2017-03-21T11:25:50.959Z,21856
2017-03-21T11:27:00.832Z,17232
2017-03-21T11:28:10.112Z,14464
2017-03-21T11:29:19.099Z,17288
2017-03-21T11:30:28.104Z,15284
2017-03-21T11:31:37.086Z,14548
2017-03-21T11:32:46.057Z,13652
2017-03-21T11:33:54.732Z,11508
2017-03-21T11:35:03.420Z,11656
2017-03-21T11:36:12.096Z,14472
2017-03-21T11:37:20.786Z,16044
2017-03-21T11:38:30.359Z,14904
2017-03-21T11:39:39.335Z,17292
2017-03-21T11:40:48.614Z,17376
2017-03-21T11:41:57.593Z,19168
2017-03-21T11:43:06.291Z,19520
2017-03-21T11:44:15.280Z,21824
2017-03-21T11:45:23.960Z,22944
2017-03-21T11:46:32.635Z,22400
2017-03-21T11:47:41.323Z,22592
2017-03-21T11:48:50.610Z,21152
2017-03-21T11:49:59.295Z,23232
2017-03-21T11:51:08.279Z,19488
2017-03-21T11:52:16.952Z,19424
2017-03-21T11:53:26.539Z,17444
2017-03-21T11:54:35.217Z,17908
2017-03-21T11:55:43.887Z,24192
2017-03-21T11:56:52.562Z,21184
2017-03-21T11:58:01.242Z,16724
2017-03-21T11:59:09.928Z,18056
2017-03-21T12:00:18.600Z,40736
2017-03-21T12:01:27.589Z,49472
2017-03-21T12:02:36.266Z,18624
2017-03-21T12:03:45.245Z,22592
2017-03-21T12:04:54.221Z,46400
2017-03-21T12:06:02.901Z,45184
2017-03-21T12:07:11.620Z,38528
2017-03-21T12:08:20.294Z,40416
2017-03-21T12:09:28.982Z,42656
2017-03-21T12:10:37.657Z,39776
2017-03-21T12:11:46.635Z,41792
2017-03-21T12:12:55.612Z,44448
2017-03-21T12:14:05.196Z,44224
2017-03-21T12:15:14.169Z,44416
2017-03-21T12:16:22.839Z,45024
2017-03-21T12:17:31.518Z,45280
2017-03-21T12:18:40.794Z,18752
2017-03-21T12:19:50.075Z,37888
2017-03-21T12:20:58.746Z,35328
2017-03-21T12:22:07.434Z,32480
2017-03-21T12:23:16.104Z,25600
2017-03-21T12:24:25.678Z,22176
2017-03-21T12:25:34.348Z,19936
2017-03-21T12:26:43.023Z,19008
2017-03-21T12:27:51.697Z,19200
2017-03-21T12:29:01.278Z,18496
2017-03-21T12:30:10.553Z,18528
2017-03-21T12:31:19.524Z,19680
2017-03-21T12:32:29.103Z,20032
2017-03-21T12:33:38.075Z,21696
2017-03-21T12:34:47.372Z,22176
2017-03-21T12:35:56.351Z,22080
2017-03-21T12:37:05.330Z,21984
2017-03-21T12:38:14.022Z,22272
2017-03-21T12:39:23.305Z,22784
2017-03-21T12:40:32.341Z,23328
2017-03-21T12:41:41.017Z,23552
2017-03-21T12:42:50.604Z,23392
2017-03-21T12:44:00.492Z,22976
2017-03-21T12:45:09.169Z,22624
2017-03-21T12:46:18.141Z,22560
2017-03-21T12:47:27.142Z,23104
2017-03-21T12:48:35.824Z,24544
2017-03-21T12:49:45.100Z,24608
2017-03-21T12:50:54.074Z,24064
2017-03-21T12:52:03.353Z,24032
2017-03-21T12:53:12.337Z,22400
2017-03-21T12:54:21.006Z,20864
2017-03-21T12:55:29.693Z,21600
2017-03-21T12:56:38.367Z,21920
2017-03-21T12:57:47.046Z,23040
2017-03-21T12:58:56.628Z,23168
2017-03-21T13:00:05.310Z,23744
2017-03-21T13:01:13.975Z,24288
2017-03-21T13:02:22.652Z,24896
2017-03-21T13:03:31.925Z,25696
2017-03-21T13:04:41.498Z,26176
2017-03-21T13:05:50.164Z,26464
2017-03-21T13:06:59.141Z,26336
2017-03-21T13:08:08.110Z,25792
2017-03-21T13:09:17.079Z,25600
2017-03-21T13:10:25.758Z,25536
2017-03-21T13:11:34.735Z,25344
2017-03-21T13:12:43.724Z,25408
2017-03-21T13:13:52.695Z,25536
2017-03-21T13:15:01.387Z,25760
2017-03-21T13:16:10.366Z,25824
2017-03-21T13:17:19.338Z,25920
2017-03-21T13:18:28.316Z,26176
2017-03-21T13:19:37.584Z,26336
2017-03-21T13:20:46.260Z,26368
2017-03-21T13:21:55.232Z,26464
2017-03-21T13:23:04.208Z,26752
2017-03-21T13:24:13.494Z,27104
2017-03-21T13:25:22.167Z,27424
2017-03-21T13:26:30.847Z,27584
2017-03-21T13:27:39.829Z,27584
2017-03-21T13:28:48.807Z,27104
2017-03-21T13:29:57.787Z,26368
2017-03-21T13:31:06.760Z,25504
2017-03-21T13:32:15.443Z,24704
2017-03-21T13:33:24.118Z,23872
2017-03-21T13:34:33.699Z,23072
2017-03-21T13:35:42.376Z,22752
2017-03-21T13:36:51.651Z,22688
2017-03-21T13:38:00.325Z,23168
2017-03-21T13:39:09.302Z,23904
2017-03-21T13:40:17.980Z,24640
2017-03-21T13:41:26.651Z,25056
2017-03-21T13:42:35.919Z,25344
2017-03-21T13:43:44.899Z,25856
2017-03-21T13:44:53.576Z,26240
2017-03-21T13:46:02.553Z,26656
2017-03-21T13:47:11.522Z,27136
2017-03-21T13:48:20.200Z,27456
2017-03-21T13:49:29.179Z,27168
2017-03-21T13:50:38.157Z,26464
2017-03-21T13:51:46.829Z,25536
2017-03-21T13:52:55.504Z,24800
2017-03-21T13:54:04.191Z,24096
2017-03-21T13:55:13.175Z,24128
2017-03-21T13:56:21.861Z,24288
2017-03-21T13:57:31.134Z,24160
2017-03-21T13:58:40.114Z,23744
2017-03-21T13:59:48.794Z,23104
2017-03-21T14:00:57.465Z,22176
2017-03-21T14:02:06.437Z,22144
2017-03-21T14:03:15.124Z,23136
2017-03-21T14:04:24.406Z,24096
2017-03-21T14:05:33.680Z,24576
2017-03-21T14:06:42.959Z,24512
2017-03-21T14:07:51.948Z,24000
2017-03-21T14:09:00.924Z,23456
2017-03-21T14:10:09.908Z,23808
2017-03-21T14:11:19.192Z,24416
2017-03-21T14:12:28.163Z,24384
2017-03-21T14:13:37.440Z,23936
2017-03-21T14:14:46.413Z,23456
2017-03-21T14:15:55.115Z,23200
2017-03-21T14:17:04.405Z,23424
2017-03-21T14:18:13.088Z,24000
2017-03-21T14:19:22.362Z,24704
2017-03-21T14:20:31.042Z,25088
2017-03-21T14:21:40.024Z,25184
2017-03-21T14:22:49.598Z,24992
2017-03-21T14:23:58.273Z,24640
2017-03-21T14:25:07.846Z,24352
2017-03-21T14:26:16.823Z,24096
2017-03-21T14:27:25.503Z,23840
2017-03-21T14:28:34.476Z,23520
2017-03-21T14:29:43.158Z,23104
2017-03-21T14:30:51.825Z,22688
2017-03-21T14:32:01.096Z,22432
2017-03-21T14:33:09.774Z,22272
2017-03-21T14:34:18.744Z,22144
2017-03-21T14:35:27.724Z,22112
2017-03-21T14:36:36.735Z,22432
2017-03-21T14:37:45.409Z,22592
2017-03-21T14:38:54.097Z,22944
2017-03-21T14:40:03.075Z,22816
2017-03-21T14:41:11.747Z,22720
2017-03-21T14:42:20.721Z,22944
2017-03-21T14:43:29.394Z,22048
2017-03-21T14:44:38.665Z,22080
2017-03-21T14:45:47.330Z,22752
2017-03-21T14:46:56.002Z,23328
2017-03-21T14:48:05.283Z,24672
2017-03-21T14:49:13.974Z,26400
2017-03-21T14:50:23.256Z,26304
2017-03-21T14:51:31.927Z,27904
2017-03-21T14:52:40.905Z,26176
2017-03-21T14:53:50.492Z,28448
2017-03-21T14:54:59.478Z,30592
2017-03-21T14:56:08.157Z,30016
2017-03-21T14:57:17.143Z,29344
2017-03-21T14:58:26.451Z,32000
2017-03-21T14:59:35.734Z,34176
2017-03-21T15:00:45.015Z,37248
2017-03-21T15:01:53.988Z,38368
2017-03-21T15:03:02.666Z,36576
2017-03-21T15:04:11.646Z,35456
2017-03-21T15:05:20.920Z,33536
2017-03-21T15:06:29.597Z,31744
2017-03-21T15:07:38.276Z,31008
2017-03-21T15:08:47.247Z,31520
2017-03-21T15:09:55.918Z,39104
2017-03-21T15:11:04.585Z,31104
2017-03-21T15:12:13.260Z,37664
2017-03-21T15:13:21.944Z,40096
2017-03-21T15:14:31.529Z,28128
2017-03-21T15:15:40.496Z,32448
2017-03-21T15:16:49.462Z,37408
2017-03-21T15:17:58.130Z,37152
2017-03-21T15:19:06.806Z,37152
2017-03-21T15:20:15.795Z,33952
2017-03-21T15:21:24.460Z,29536
2017-03-21T15:22:33.143Z,25536
2017-03-21T15:23:41.820Z,25632
2017-03-21T15:24:50.499Z,25952
2017-03-21T15:25:59.479Z,27296
2017-03-21T15:27:08.460Z,28736
2017-03-21T15:28:18.036Z,30976
2017-03-21T15:29:26.733Z,27584
2017-03-21T15:30:35.704Z,28000
2017-03-21T15:31:44.981Z,31136
2017-03-21T15:32:53.952Z,28256
2017-03-21T15:34:02.613Z,22880
2017-03-21T15:35:11.886Z,27104
2017-03-21T15:36:20.863Z,24256
2017-03-21T15:37:29.533Z,21152
2017-03-21T15:38:38.511Z,21280
2017-03-21T15:39:47.783Z,19840
2017-03-21T15:40:56.451Z,20576
2017-03-21T15:42:05.116Z,20576
2017-03-21T15:43:14.092Z,18848
2017-03-21T15:44:23.061Z,18976
2017-03-21T15:45:32.033Z,17088
2017-03-21T15:46:41.000Z,16640
2017-03-21T15:47:50.282Z,17632
2017-03-21T15:49:00.164Z,17472
2017-03-21T15:50:08.841Z,16992
2017-03-21T15:51:17.514Z,16260
2017-03-21T15:52:26.813Z,14692
2017-03-21T15:53:36.088Z,14416
2017-03-21T15:54:45.058Z,14352
2017-03-21T15:55:54.036Z,13816
2017-03-21T15:57:03.305Z,14032
2017-03-21T15:58:11.985Z,13632
2017-03-21T15:59:20.967Z,13284
2017-03-21T16:00:29.941Z,13260
2017-03-21T16:01:38.942Z,12920